Terminal Aerodrome Forecast
Issued by NWS

Home | Current Version | Previous Version | Text Only | Print | Product List | Glossary On
Versions: 1 2 3 4 5 6 7 8 9 10 11 12 13 14 15 16 17 18 19 20 21 22 23 24 25 26 27 28
000
FTUS41 KGYX 031030 AAB
TAFHIE
TAF AMD
KHIE 031030Z 0311/0406 VRB03KT P6SM SCT200
     FM031300 20010KT P6SM BKN200 PROB30 0321/0401 4SM +TSRA BR
      OVC030CB
     FM040100 VRB03KT 5SM -SHRA BR OVC025=

USA.gov is the U.S. government's official web portal to all federal, state and local government web resources and services.